createdAt,value
2018-09-22T00:00:11.773Z,67.02
2018-09-22T00:02:39.425Z,66.25
2018-09-22T00:05:07.166Z,66.70
2018-09-22T00:07:34.751Z,66.40
2018-09-22T00:10:02.394Z,66.71
2018-09-22T00:12:30.004Z,67.40
2018-09-22T00:14:57.752Z,66.93
2018-09-22T00:17:25.317Z,67.41
2018-09-22T00:19:52.953Z,67.23
2018-09-22T00:22:20.708Z,67.57
2018-09-22T00:24:48.285Z,67.28
2018-09-22T00:27:15.921Z,67.25
2018-09-22T00:29:43.480Z,66.81
2018-09-22T00:32:11.027Z,67.23
2018-09-22T00:34:38.610Z,66.75
2018-09-22T00:37:06.388Z,68.28
2018-09-22T00:39:33.979Z,68.25
2018-09-22T00:42:01.588Z,68.01
2018-09-22T00:44:29.235Z,69.44
2018-09-22T00:46:56.927Z,69.61
2018-09-22T00:49:24.530Z,70.03
2018-09-22T00:51:52.125Z,70.22
2018-09-22T00:54:19.694Z,75.18
2018-09-22T00:56:47.424Z,77.46
2018-09-22T00:59:14.994Z,79.25
2018-09-22T01:01:43.312Z,78.21
2018-09-22T01:04:14.439Z,79.38
2018-09-22T01:06:42.441Z,80.34
2018-09-22T01:09:13.694Z,79.85
2018-09-22T01:11:41.829Z,80.86
2018-09-22T01:14:10.046Z,80.90
2018-09-22T01:16:39.430Z,81.12
2018-09-22T01:19:08.553Z,80.77
2018-09-22T01:21:38.386Z,80.88
2018-09-22T01:24:06.525Z,81.43
2018-09-22T01:26:34.516Z,80.52
2018-09-22T01:29:03.635Z,80.58
2018-09-22T01:31:32.621Z,80.47
2018-09-22T01:34:03.808Z,80.04
2018-09-22T01:36:32.123Z,79.93
2018-09-22T01:39:00.433Z,79.81
2018-09-22T01:41:30.069Z,81.10
2018-09-22T01:43:58.660Z,80.02
2018-09-22T01:46:27.100Z,80.72
2018-09-22T01:48:58.082Z,80.62
2018-09-22T01:51:26.276Z,80.88
2018-09-22T01:53:55.910Z,80.97
2018-09-22T01:56:24.498Z,80.70
2018-09-22T01:58:52.865Z,80.50
2018-09-22T02:01:22.581Z,80.17
2018-09-22T02:03:51.399Z,79.98
2018-09-22T02:06:21.548Z,80.44
2018-09-22T02:08:51.887Z,79.59
2018-09-22T02:11:20.233Z,79.68
2018-09-22T02:13:49.775Z,79.77
2018-09-22T02:16:17.850Z,79.15
2018-09-22T02:18:45.968Z,78.98
2018-09-22T02:21:14.166Z,79.34
2018-09-22T02:23:46.540Z,79.56
2018-09-22T02:26:17.608Z,78.65
2018-09-22T02:28:45.938Z,78.54
2018-09-22T02:31:14.240Z,78.81
2018-09-22T02:33:42.927Z,78.76
2018-09-22T02:36:11.142Z,78.19
2018-09-22T02:38:39.358Z,79.16
2018-09-22T02:41:07.382Z,78.44
2018-09-22T02:43:36.153Z,77.91
2018-09-22T02:46:08.142Z,77.44
2018-09-22T02:48:37.215Z,76.89
2018-09-22T02:51:06.186Z,77.58
2018-09-22T02:53:34.524Z,77.49
2018-09-22T02:56:03.577Z,77.41
2018-09-22T02:58:31.762Z,77.92
2018-09-22T03:01:00.794Z,78.30
2018-09-22T03:03:30.388Z,78.38
2018-09-22T03:05:59.264Z,78.30
2018-09-22T03:08:29.364Z,78.38
2018-09-22T03:10:57.486Z,78.21
2018-09-22T03:13:25.616Z,78.63
2018-09-22T03:15:53.478Z,79.20
2018-09-22T03:18:21.105Z,79.28
2018-09-22T03:20:49.144Z,79.14
2018-09-22T03:23:19.177Z,78.81
2018-09-22T03:25:47.820Z,78.39
2018-09-22T03:28:16.323Z,78.71
2018-09-22T03:30:46.233Z,77.93
2018-09-22T03:33:15.492Z,77.52
2018-09-22T03:35:43.612Z,77.79
2018-09-22T03:38:12.871Z,76.96
2018-09-22T03:40:41.769Z,77.32
2018-09-22T03:43:10.317Z,77.91
2018-09-22T03:45:38.558Z,77.89
2018-09-22T03:48:07.193Z,77.19
2018-09-22T03:50:35.295Z,77.41
2018-09-22T03:53:03.373Z,77.28
2018-09-22T03:55:34.260Z,77.55
2018-09-22T03:58:03.332Z,77.14
2018-09-22T04:00:32.498Z,76.97
2018-09-22T04:03:01.473Z,76.97
2018-09-22T04:05:31.466Z,77.37
2018-09-22T04:07:59.562Z,77.20
2018-09-22T04:10:27.742Z,77.24
2018-09-22T04:12:56.541Z,77.18
2018-09-22T04:15:24.745Z,77.34
2018-09-22T04:17:52.732Z,77.26
2018-09-22T04:20:20.990Z,77.12
2018-09-22T04:22:49.139Z,77.87
2018-09-22T04:25:16.761Z,77.12
2018-09-22T04:27:44.292Z,77.64
2018-09-22T04:30:11.890Z,77.05
2018-09-22T04:32:39.409Z,76.94
2018-09-22T04:35:07.012Z,76.73
2018-09-22T04:37:34.555Z,77.21
2018-09-22T04:40:02.119Z,77.34
2018-09-22T04:42:29.623Z,77.03
2018-09-22T04:44:57.301Z,77.21
2018-09-22T04:47:24.874Z,77.29
2018-09-22T04:49:52.449Z,77.19
2018-09-22T04:52:20.014Z,77.26
2018-09-22T04:54:47.758Z,76.82
2018-09-22T04:57:15.360Z,77.17
2018-09-22T04:59:42.904Z,77.09
2018-09-22T05:02:10.460Z,76.53
2018-09-22T05:04:38.014Z,77.14
2018-09-22T05:07:05.537Z,76.42
2018-09-22T05:09:33.103Z,76.55
2018-09-22T05:12:00.670Z,76.59
2018-09-22T05:14:28.337Z,76.75
2018-09-22T05:16:56.102Z,76.35
2018-09-22T05:19:23.674Z,76.49
2018-09-22T05:21:51.192Z,76.04
2018-09-22T05:24:18.783Z,76.36
2018-09-22T05:26:46.303Z,76.21
2018-09-22T05:29:13.874Z,76.25
2018-09-22T05:31:41.513Z,75.83
2018-09-22T05:34:09.019Z,75.94
2018-09-22T05:36:36.604Z,75.94
2018-09-22T05:39:04.182Z,75.95
2018-09-22T05:41:31.802Z,76.50
2018-09-22T05:43:59.334Z,75.79
2018-09-22T05:46:26.902Z,75.40
2018-09-22T05:48:54.499Z,75.48
2018-09-22T05:51:22.022Z,75.74
2018-09-22T05:53:49.582Z,75.14
2018-09-22T05:56:17.117Z,75.55
2018-09-22T05:58:44.749Z,75.47
2018-09-22T06:01:12.329Z,75.76
2018-09-22T06:03:39.929Z,75.40
2018-09-22T06:06:07.781Z,75.79
2018-09-22T06:08:35.283Z,75.60
2018-09-22T06:11:02.833Z,75.19
2018-09-22T06:13:30.365Z,75.38
2018-09-22T06:15:57.929Z,75.82
2018-09-22T06:18:25.465Z,75.02
2018-09-22T06:20:53.453Z,75.01
2018-09-22T06:23:21.234Z,75.20
2018-09-22T06:25:49.867Z,75.59
2018-09-22T06:28:17.698Z,75.21
2018-09-22T06:30:45.230Z,74.89
2018-09-22T06:33:12.769Z,74.80
2018-09-22T06:35:40.347Z,75.47
2018-09-22T06:38:08.089Z,74.99
2018-09-22T06:40:35.658Z,75.22
2018-09-22T06:43:03.246Z,75.12
2018-09-22T06:45:30.776Z,75.23
2018-09-22T06:47:58.347Z,74.69
2018-09-22T06:50:25.895Z,75.34
2018-09-22T06:52:53.507Z,75.00
2018-09-22T06:55:21.328Z,74.83
2018-09-22T06:57:49.082Z,74.68
2018-09-22T07:00:16.619Z,74.43
2018-09-22T07:02:44.199Z,74.65
2018-09-22T07:05:11.759Z,74.94
2018-09-22T07:07:39.310Z,74.21
2018-09-22T07:10:07.509Z,74.72
2018-09-22T07:12:35.057Z,74.62
2018-09-22T07:15:02.620Z,75.08
2018-09-22T07:17:30.161Z,74.89
2018-09-22T07:19:57.728Z,74.65
2018-09-22T07:22:30.825Z,74.40
2018-09-22T07:24:58.473Z,74.17
2018-09-22T07:27:26.193Z,73.99
2018-09-22T07:29:53.990Z,73.51
2018-09-22T07:32:21.579Z,73.80
2018-09-22T07:34:49.113Z,73.80
2018-09-22T07:37:16.699Z,74.05
2018-09-22T07:39:44.224Z,74.61
2018-09-22T07:42:11.727Z,73.87
2018-09-22T07:44:39.381Z,74.02
2018-09-22T07:47:06.897Z,74.11
2018-09-22T07:49:34.467Z,73.94
2018-09-22T07:52:02.058Z,73.76
2018-09-22T07:54:29.644Z,73.98
2018-09-22T07:56:57.154Z,73.39
2018-09-22T07:59:24.727Z,72.96
2018-09-22T08:01:52.321Z,72.96
2018-09-22T08:04:19.894Z,72.43
2018-09-22T08:06:47.451Z,72.37
2018-09-22T08:09:15.158Z,72.35
2018-09-22T08:11:42.755Z,72.81
2018-09-22T08:14:10.281Z,72.56
2018-09-22T08:16:37.862Z,71.69
2018-09-22T08:19:05.416Z,72.13
2018-09-22T08:21:32.968Z,71.57
2018-09-22T08:24:00.545Z,71.77
2018-09-22T08:26:28.073Z,71.96
2018-09-22T08:28:56.085Z,71.75
2018-09-22T08:31:23.682Z,71.89
2018-09-22T08:33:51.312Z,71.63
2018-09-22T08:36:18.957Z,71.75
2018-09-22T08:38:46.541Z,71.79
2018-09-22T08:41:14.103Z,71.20
2018-09-22T08:43:41.625Z,70.78
2018-09-22T08:46:09.206Z,70.12
2018-09-22T08:48:36.739Z,70.62
2018-09-22T08:51:04.309Z,69.77
2018-09-22T08:53:31.851Z,69.96
2018-09-22T08:55:59.376Z,70.28
2018-09-22T08:58:26.949Z,70.43
2018-09-22T09:00:54.513Z,70.51
2018-09-22T09:03:22.078Z,70.15
2018-09-22T09:05:49.616Z,70.39
2018-09-22T09:08:17.265Z,69.56
2018-09-22T09:10:45.005Z,69.57
2018-09-22T09:13:12.588Z,69.69
2018-09-22T09:15:40.132Z,69.68
2018-09-22T09:18:08.096Z,69.22
2018-09-22T09:20:35.902Z,68.64
2018-09-22T09:23:03.669Z,68.83
2018-09-22T09:25:31.399Z,68.83
2018-09-22T09:27:58.962Z,68.51
2018-09-22T09:30:26.667Z,68.27
2018-09-22T09:32:54.203Z,66.96
2018-09-22T09:35:21.779Z,65.82
2018-09-22T09:37:49.853Z,66.49
2018-09-22T09:40:17.390Z,65.73
2018-09-22T09:42:44.942Z,64.81
2018-09-22T09:45:12.521Z,63.83
2018-09-22T09:47:40.073Z,64.17
2018-09-22T09:50:07.779Z,64.73
2018-09-22T09:52:35.503Z,64.67
2018-09-22T09:55:03.039Z,63.21
2018-09-22T09:57:30.631Z,63.09
2018-09-22T09:59:58.205Z,63.11
2018-09-22T10:02:25.989Z,63.69
2018-09-22T10:04:53.562Z,61.94
2018-09-22T10:07:21.215Z,62.35
2018-09-22T10:09:48.968Z,62.74
2018-09-22T10:12:16.531Z,62.29
2018-09-22T10:14:44.057Z,61.84
2018-09-22T10:17:11.633Z,61.82
2018-09-22T10:19:39.158Z,61.93
2018-09-22T10:22:06.737Z,59.49
2018-09-22T10:24:34.412Z,60.12
2018-09-22T10:27:01.980Z,60.99
2018-09-22T10:29:29.510Z,60.62
2018-09-22T10:31:57.092Z,59.49
2018-09-22T10:34:24.639Z,58.52
2018-09-22T10:36:52.259Z,58.99
2018-09-22T10:39:19.825Z,60.20
2018-09-22T10:41:47.372Z,58.98
2018-09-22T10:44:14.922Z,58.85
2018-09-22T10:46:42.431Z,58.45
2018-09-22T10:49:09.987Z,57.34
2018-09-22T10:51:37.543Z,57.39
2018-09-22T10:54:05.120Z,56.83
2018-09-22T10:56:32.667Z,56.47
2018-09-22T10:59:00.347Z,56.81
2018-09-22T11:01:27.884Z,56.56
2018-09-22T11:03:55.408Z,56.15
2018-09-22T11:06:22.950Z,56.09
2018-09-22T11:08:50.484Z,56.07
2018-09-22T11:11:18.243Z,56.27
2018-09-22T11:13:45.857Z,55.65
2018-09-22T11:16:13.391Z,55.56
2018-09-22T11:18:40.913Z,56.02
2018-09-22T11:21:08.472Z,56.27
2018-09-22T11:23:36.050Z,57.11
2018-09-22T11:26:03.605Z,56.69
2018-09-22T11:28:31.125Z,57.19
2018-09-22T11:30:58.685Z,57.58
2018-09-22T11:33:26.189Z,56.94
2018-09-22T11:35:53.747Z,56.74
2018-09-22T11:38:21.314Z,57.93
2018-09-22T11:40:48.868Z,57.07
2018-09-22T11:43:16.473Z,56.31
2018-09-22T11:45:44.022Z,55.50
2018-09-22T11:48:11.544Z,56.30
2018-09-22T11:50:39.117Z,57.27
2018-09-22T11:53:06.647Z,56.55
2018-09-22T11:55:34.231Z,56.62
2018-09-22T11:58:01.770Z,57.39
2018-09-22T12:00:29.313Z,57.01
2018-09-22T12:02:56.895Z,56.83
2018-09-22T12:05:24.441Z,57.21
2018-09-22T12:07:52.026Z,57.29
2018-09-22T12:10:19.637Z,56.89
2018-09-22T12:12:47.202Z,57.33
2018-09-22T12:15:14.785Z,56.96
2018-09-22T12:17:42.320Z,57.12
2018-09-22T12:20:09.880Z,56.89
2018-09-22T12:22:37.550Z,56.91
2018-09-22T12:25:05.139Z,57.08
2018-09-22T12:27:32.658Z,56.94
2018-09-22T12:30:00.177Z,57.34
2018-09-22T12:32:27.733Z,57.21
2018-09-22T12:34:55.263Z,56.45
2018-09-22T12:37:22.798Z,56.42
2018-09-22T12:39:50.335Z,57.03
2018-09-22T12:42:17.879Z,57.25
2018-09-22T12:44:45.439Z,57.32
2018-09-22T12:47:13.010Z,57.68
2018-09-22T12:49:40.530Z,57.34
2018-09-22T12:52:08.049Z,58.09
2018-09-22T12:54:35.613Z,58.49
2018-09-22T12:57:03.124Z,59.26
2018-09-22T12:59:30.688Z,60.60
2018-09-22T13:01:58.289Z,61.43
2018-09-22T13:04:25.826Z,63.84
2018-09-22T13:06:53.466Z,64.94
2018-09-22T13:09:21.013Z,65.70
2018-09-22T13:11:48.572Z,65.11
2018-09-22T13:14:16.151Z,64.32
2018-09-22T13:16:43.713Z,64.29
2018-09-22T13:19:11.214Z,64.06
2018-09-22T13:21:38.768Z,64.69
2018-09-22T13:24:06.295Z,64.72
2018-09-22T13:26:33.852Z,64.02
2018-09-22T13:29:01.420Z,63.89
2018-09-22T13:31:28.974Z,63.30
2018-09-22T13:33:56.546Z,62.65
2018-09-22T13:36:24.050Z,62.57
2018-09-22T13:38:51.627Z,63.47
2018-09-22T13:41:19.146Z,62.98
2018-09-22T13:43:46.705Z,62.09
2018-09-22T13:46:14.236Z,61.71
2018-09-22T13:48:41.746Z,61.40
2018-09-22T13:51:09.330Z,61.80
2018-09-22T13:53:36.908Z,62.05
2018-09-22T13:56:04.448Z,61.73
2018-09-22T13:58:32.037Z,61.29
2018-09-22T14:00:59.611Z,60.84
2018-09-22T14:03:27.129Z,61.59
2018-09-22T14:05:54.690Z,61.25
2018-09-22T14:08:22.206Z,60.60
2018-09-22T14:10:49.766Z,60.55
2018-09-22T14:13:17.267Z,60.70
2018-09-22T14:15:44.766Z,61.14
2018-09-22T14:18:12.403Z,61.53
2018-09-22T14:20:39.973Z,61.66
2018-09-22T14:23:07.676Z,62.06
2018-09-22T14:25:35.244Z,61.98
2018-09-22T14:28:02.785Z,60.40
2018-09-22T14:30:30.442Z,60.46
2018-09-22T14:32:58.094Z,60.49
2018-09-22T14:35:25.683Z,61.92
2018-09-22T14:37:53.277Z,62.96
2018-09-22T14:40:20.820Z,62.96
2018-09-22T14:42:48.372Z,65.37
2018-09-22T14:45:15.938Z,63.68
2018-09-22T14:47:43.455Z,63.37
2018-09-22T14:50:11.002Z,64.23
2018-09-22T14:52:38.576Z,64.58
2018-09-22T14:55:06.091Z,65.22
2018-09-22T14:57:33.650Z,67.29
2018-09-22T15:00:01.631Z,66.96
2018-09-22T15:02:29.165Z,67.80
2018-09-22T15:04:56.734Z,67.94
2018-09-22T15:07:24.252Z,67.65
2018-09-22T15:09:51.813Z,68.33
2018-09-22T15:12:19.378Z,69.44
2018-09-22T15:14:46.893Z,70.18
2018-09-22T15:17:14.502Z,69.55
2018-09-22T15:19:42.077Z,69.74
2018-09-22T15:22:09.644Z,70.19
2018-09-22T15:24:37.540Z,70.73
2018-09-22T15:27:05.128Z,72.67
2018-09-22T15:29:34.095Z,72.72
2018-09-22T15:32:01.717Z,72.69
2018-09-22T15:34:29.238Z,73.07
2018-09-22T15:36:56.831Z,73.47
2018-09-22T15:39:24.352Z,72.76
2018-09-22T15:41:51.942Z,72.03
2018-09-22T15:44:19.633Z,72.33
2018-09-22T15:46:47.173Z,72.55
2018-09-22T15:49:14.772Z,71.73
2018-09-22T15:51:42.404Z,72.82
2018-09-22T15:54:09.994Z,73.00
2018-09-22T15:56:37.510Z,74.21
2018-09-22T15:59:05.066Z,74.38
2018-09-22T16:01:32.589Z,75.44
2018-09-22T16:04:00.164Z,75.63
2018-09-22T16:06:27.699Z,75.28
2018-09-22T16:08:55.330Z,75.43
2018-09-22T16:11:22.941Z,75.46
2018-09-22T16:13:50.521Z,76.88
2018-09-22T16:16:18.186Z,76.40
2018-09-22T16:18:45.769Z,76.62
2018-09-22T16:21:13.320Z,77.53
2018-09-22T16:23:40.872Z,77.71
2018-09-22T16:26:08.449Z,77.54
2018-09-22T16:28:35.958Z,77.60
2018-09-22T16:31:03.751Z,78.44
2018-09-22T16:33:31.269Z,77.58
2018-09-22T16:35:58.810Z,77.54
2018-09-22T16:38:26.371Z,77.81
2018-09-22T16:40:53.904Z,78.34
2018-09-22T16:43:21.544Z,77.56
2018-09-22T16:45:49.208Z,77.50
2018-09-22T16:48:16.780Z,79.38
2018-09-22T16:50:44.419Z,79.38
2018-09-22T16:53:11.982Z,79.74
2018-09-22T16:55:39.511Z,80.41
2018-09-22T16:58:07.140Z,79.91
2018-09-22T17:00:34.702Z,79.36
2018-09-22T17:03:02.376Z,80.09
2018-09-22T17:05:29.956Z,79.33
2018-09-22T17:07:57.619Z,78.81
2018-09-22T17:10:25.375Z,79.63
2018-09-22T17:12:52.929Z,79.31
2018-09-22T17:15:20.468Z,77.94
2018-09-22T17:17:48.203Z,78.00
2018-09-22T17:20:15.722Z,77.83
2018-09-22T17:22:43.238Z,78.04
2018-09-22T17:25:10.829Z,77.52
2018-09-22T17:27:38.620Z,77.57
2018-09-22T17:30:06.126Z,77.35
2018-09-22T17:32:33.702Z,77.64
2018-09-22T17:35:01.241Z,77.41
2018-09-22T17:37:28.799Z,77.10
2018-09-22T17:39:56.403Z,76.45
2018-09-22T17:42:24.122Z,76.10
2018-09-22T17:44:51.668Z,75.19
2018-09-22T17:47:19.282Z,76.92
2018-09-22T17:49:46.888Z,75.22
2018-09-22T17:52:14.575Z,75.65
2018-09-22T17:54:42.273Z,75.07
2018-09-22T17:57:09.831Z,75.41
2018-09-22T17:59:37.431Z,75.22
2018-09-22T18:02:05.017Z,74.55
2018-09-22T18:04:32.681Z,73.81
2018-09-22T18:07:00.462Z,73.52
2018-09-22T18:09:28.220Z,73.40
2018-09-22T18:11:55.844Z,73.95
2018-09-22T18:14:23.440Z,74.57
2018-09-22T18:16:51.343Z,74.30
2018-09-22T18:19:18.805Z,73.84
2018-09-22T18:21:46.425Z,73.43
2018-09-22T18:24:14.080Z,73.71
2018-09-22T18:26:41.693Z,73.60
2018-09-22T18:29:10.316Z,74.11
2018-09-22T18:31:37.898Z,74.97
2018-09-22T18:34:05.498Z,75.75
2018-09-22T18:36:33.210Z,74.85
2018-09-22T18:39:03.044Z,74.48
2018-09-22T18:41:32.773Z,73.85
2018-09-22T18:44:01.084Z,73.77
2018-09-22T18:46:28.651Z,75.70
2018-09-22T18:48:56.330Z,74.45
2018-09-22T18:51:23.919Z,73.79
2018-09-22T18:53:51.544Z,74.48
2018-09-22T18:56:19.107Z,75.12
2018-09-22T18:58:47.156Z,75.43
2018-09-22T19:01:14.763Z,75.16
2018-09-22T19:03:42.351Z,74.61
2018-09-22T19:06:09.934Z,73.83
2018-09-22T19:08:37.558Z,73.98
2018-09-22T19:11:05.125Z,73.81
2018-09-22T19:13:32.780Z,74.32
2018-09-22T19:16:00.620Z,74.20
2018-09-22T19:18:28.199Z,75.90
2018-09-22T19:20:55.842Z,75.67
2018-09-22T19:23:23.430Z,75.68
2018-09-22T19:25:51.042Z,76.03
2018-09-22T19:28:19.820Z,76.45
2018-09-22T19:30:47.391Z,75.71
2018-09-22T19:33:15.006Z,76.45
2018-09-22T19:35:42.964Z,75.60
2018-09-22T19:38:10.805Z,75.53
2018-09-22T19:40:38.606Z,75.07
2018-09-22T19:43:06.202Z,75.83
2018-09-22T19:45:34.112Z,75.55
2018-09-22T19:48:01.891Z,74.99
2018-09-22T19:50:29.477Z,74.93
2018-09-22T19:53:00.416Z,74.76
2018-09-22T19:55:27.988Z,75.87
2018-09-22T19:57:55.662Z,75.18
2018-09-22T20:00:23.263Z,76.10
2018-09-22T20:02:50.861Z,75.07
2018-09-22T20:05:18.470Z,76.39
2018-09-22T20:07:48.191Z,75.78
2018-09-22T20:10:15.712Z,75.60
2018-09-22T20:12:43.301Z,76.09
2018-09-22T20:15:11.160Z,75.18
2018-09-22T20:17:38.737Z,75.25
2018-09-22T20:20:06.321Z,75.95
2018-09-22T20:22:33.988Z,77.31
2018-09-22T20:25:01.576Z,76.58
2018-09-22T20:27:29.175Z,77.52
2018-09-22T20:29:56.813Z,76.91
2018-09-22T20:32:24.332Z,76.17
2018-09-22T20:34:54.939Z,76.43
2018-09-22T20:37:22.520Z,75.86
2018-09-22T20:39:50.172Z,76.27
2018-09-22T20:42:17.804Z,76.71
2018-09-22T20:44:45.575Z,76.63
2018-09-22T20:47:13.137Z,76.77
2018-09-22T20:49:40.676Z,76.35
2018-09-22T20:52:08.290Z,76.30
2018-09-22T20:54:35.855Z,76.10
2018-09-22T20:57:03.621Z,76.65
2018-09-22T20:59:31.351Z,75.75
2018-09-22T21:01:58.935Z,75.34
2018-09-22T21:04:26.538Z,76.37
2018-09-22T21:06:54.280Z,76.37
2018-09-22T21:09:21.856Z,76.62
2018-09-22T21:11:49.417Z,76.09
2018-09-22T21:14:17.002Z,76.13
2018-09-22T21:16:44.534Z,78.05
2018-09-22T21:19:12.131Z,76.94
2018-09-22T21:21:41.102Z,76.68
2018-09-22T21:24:08.685Z,76.88
2018-09-22T21:26:36.516Z,77.58
2018-09-22T21:29:04.097Z,78.26
2018-09-22T21:31:31.706Z,77.07
2018-09-22T21:33:59.555Z,77.25
2018-09-22T21:36:27.218Z,77.24
2018-09-22T21:38:54.749Z,77.02
2018-09-22T21:41:22.444Z,77.22
2018-09-22T21:43:50.062Z,76.93
2018-09-22T21:46:17.831Z,76.68
2018-09-22T21:48:45.400Z,77.64
2018-09-22T21:51:13.063Z,76.29
2018-09-22T21:53:40.642Z,76.16
2018-09-22T21:56:08.256Z,76.61
2018-09-22T21:58:36.246Z,76.16
2018-09-22T22:01:03.960Z,76.73
2018-09-22T22:03:31.521Z,76.01
2018-09-22T22:05:59.349Z,77.86
2018-09-22T22:08:26.990Z,76.65
2018-09-22T22:10:54.581Z,76.38
2018-09-22T22:13:23.309Z,78.76
2018-09-22T22:15:51.229Z,77.54
2018-09-22T22:18:20.078Z,76.99
2018-09-22T22:20:47.974Z,76.76
2018-09-22T22:23:15.653Z,76.79
2018-09-22T22:25:43.228Z,76.51
2018-09-22T22:28:11.048Z,76.37
2018-09-22T22:30:39.324Z,75.87
2018-09-22T22:33:07.064Z,75.85
2018-09-22T22:35:34.807Z,75.76
2018-09-22T22:38:02.597Z,75.65
2018-09-22T22:40:30.482Z,76.25
2018-09-22T22:42:58.167Z,75.00
2018-09-22T22:45:25.818Z,75.73
2018-09-22T22:47:53.428Z,75.40
2018-09-22T22:50:21.766Z,75.31
2018-09-22T22:52:50.434Z,74.91
2018-09-22T22:55:18.321Z,75.48
2018-09-22T22:57:46.202Z,75.39
2018-09-22T23:00:15.121Z,75.00
2018-09-22T23:02:43.644Z,74.89
2018-09-22T23:05:11.253Z,75.26
2018-09-22T23:07:38.871Z,75.17
2018-09-22T23:10:08.237Z,74.54
2018-09-22T23:12:36.104Z,74.44
2018-09-22T23:15:03.962Z,74.01
2018-09-22T23:17:31.566Z,74.60
2018-09-22T23:20:00.204Z,74.61
2018-09-22T23:22:28.131Z,74.52
2018-09-22T23:24:56.824Z,74.87
2018-09-22T23:27:24.846Z,74.51
2018-09-22T23:29:52.644Z,74.57
2018-09-22T23:32:20.305Z,75.41
2018-09-22T23:34:47.963Z,74.68
2018-09-22T23:37:15.953Z,74.96
2018-09-22T23:39:43.825Z,74.47
2018-09-22T23:42:11.582Z,74.50
2018-09-22T23:44:39.173Z,75.03
2018-09-22T23:47:07.405Z,74.43
2018-09-22T23:49:35.573Z,74.27
2018-09-22T23:52:03.378Z,74.84
2018-09-22T23:54:31.053Z,74.77
2018-09-22T23:56:58.998Z,74.34
2018-09-22T23:59:28.757Z,74.16
